Time;durP1;ratioP1;P1;durP2;ratioP2;P2;SDS_P1;SDS_P2;PMS_P1;PMS_P2;Temp;Humidity;BMP_temperature;BMP_pressure;BME280_temperature;BME280_humidity;BME280_pressure;Samples;Min_cycle;Max_cycle;Signal;HPM_P1;HPM_P2
2022/02/19 00:00:00;;;;;;;18.95;3.13;;;6.60;86.60;;;;;;5067339;28;20040;-57
2022/02/19 00:02:26;;;;;;;11.95;2.60;;;6.60;86.10;;;;;;5056483;28;20493;-57
2022/02/19 00:04:52;;;;;;;16.45;2.95;;;6.70;86.00;;;;;;5059031;28;20032;-57
2022/02/19 00:07:18;;;;;;;16.33;2.60;;;6.60;86.70;;;;;;5051787;28;20072;-57
2022/02/19 00:09:43;;;;;;;16.70;3.25;;;6.60;86.00;;;;;;5057929;28;20086;-57
2022/02/19 00:12:09;;;;;;;13.40;2.28;;;6.60;86.40;;;;;;5073213;28;20033;-56
2022/02/19 00:14:35;;;;;;;12.35;2.22;;;6.50;87.20;;;;;;5072949;28;20115;-56
2022/02/19 00:17:03;;;;;;;11.25;2.30;;;6.50;87.20;;;;;;5066265;28;20577;-56
2022/02/19 00:19:29;;;;;;;21.05;2.88;;;6.50;88.10;;;;;;5052317;28;20041;-56
2022/02/19 00:21:54;;;;;;;12.35;2.70;;;6.50;88.30;;;;;;5055218;28;20504;-55
2022/02/19 00:24:20;;;;;;;15.38;2.45;;;6.50;88.50;;;;;;5065832;28;20439;-57
2022/02/19 00:26:46;;;;;;;14.32;2.42;;;6.60;87.10;;;;;;5061355;28;20535;-56
2022/02/19 00:29:11;;;;;;;16.75;2.60;;;6.50;87.60;;;;;;5064753;28;20062;-56
2022/02/19 00:31:37;;;;;;;12.60;2.10;;;6.50;88.50;;;;;;5072985;28;20120;-56
2022/02/19 00:34:03;;;;;;;13.02;2.75;;;6.50;88.70;;;;;;5064459;28;20545;-57
2022/02/19 00:36:28;;;;;;;16.63;3.10;;;6.50;89.70;;;;;;5071790;28;20046;-57
2022/02/19 00:38:54;;;;;;;19.02;2.58;;;6.40;90.00;;;;;;5071737;28;20645;-55
2022/02/19 00:41:19;;;;;;;15.30;2.70;;;6.50;89.60;;;;;;5064739;28;20037;-55
2022/02/19 00:43:45;;;;;;;14.70;2.97;;;6.40;89.70;;;;;;5071935;28;20112;-56
2022/02/19 00:46:11;;;;;;;15.18;3.05;;;6.40;90.50;;;;;;5059419;28;20051;-56
2022/02/19 00:48:37;;;;;;;10.27;2.20;;;6.40;90.60;;;;;;5052620;28;20132;-56
2022/02/19 00:51:02;;;;;;;18.55;2.95;;;6.40;91.00;;;;;;5038213;28;20032;-55
2022/02/19 00:53:28;;;;;;;16.80;2.70;;;6.30;91.50;;;;;;5072213;28;20428;-53
2022/02/19 00:55:54;;;;;;;18.27;3.00;;;6.20;92.50;;;;;;5063106;28;20029;-55
2022/02/19 00:58:20;;;;;;;18.63;3.13;;;6.20;93.00;;;;;;5060296;28;20044;-56
2022/02/19 01:00:45;;;;;;;20.98;3.10;;;6.10;94.40;;;;;;5069016;28;20408;-55
2022/02/19 01:03:11;;;;;;;17.55;3.20;;;6.00;94.60;;;;;;5069067;28;20036;-56
2022/02/19 01:05:36;;;;;;;14.85;2.40;;;6.10;95.50;;;;;;5060077;28;20036;-54
2022/02/19 01:08:02;;;;;;;11.52;3.13;;;6.00;96.30;;;;;;5061012;28;20041;-56
2022/02/19 01:10:34;;;;;;;18.92;2.88;;;5.90;96.90;;;;;;5057553;28;20052;-55
2022/02/19 01:12:59;;;;;;;18.13;3.03;;;5.90;97.00;;;;;;5067985;28;20547;-56
2022/02/19 01:15:25;;;;;;;19.65;2.88;;;5.90;97.60;;;;;;5069951;28;20032;-56
2022/02/19 01:17:51;;;;;;;14.13;3.28;;;6.00;97.80;;;;;;5062718;28;20066;-54
2022/02/19 01:20:17;;;;;;;15.15;2.50;;;6.00;97.70;;;;;;5064152;28;20090;-56
2022/02/19 01:22:43;;;;;;;21.33;4.57;;;6.00;97.60;;;;;;5072153;28;20047;-55
2022/02/19 01:25:10;;;;;;;17.10;2.60;;;5.90;98.70;;;;;;5071247;28;20041;-56
2022/02/19 01:27:36;;;;;;;15.07;2.50;;;5.90;98.50;;;;;;5070835;28;20505;-56
2022/02/19 01:30:03;;;;;;;16.90;2.83;;;5.90;98.50;;;;;;5071659;28;20044;-56
2022/02/19 01:32:29;;;;;;;19.42;2.83;;;5.90;99.20;;;;;;5071647;28;20040;-56
2022/02/19 01:34:54;;;;;;;17.08;3.83;;;5.80;99.80;;;;;;5071605;28;20036;-56
2022/02/19 01:37:20;;;;;;;15.50;3.15;;;5.90;99.90;;;;;;5070899;28;20037;-56
2022/02/19 01:39:45;;;;;;;13.57;2.90;;;5.80;99.90;;;;;;5070458;28;20044;-55
2022/02/19 01:42:11;;;;;;;21.17;3.58;;;5.90;99.90;;;;;;5071687;28;20044;-56
2022/02/19 01:44:39;;;;;;;18.10;2.50;;;5.80;99.90;;;;;;5062274;28;20037;-56
2022/02/19 01:47:06;;;;;;;15.80;2.40;;;5.70;99.90;;;;;;5067969;28;20036;-56
2022/02/19 01:49:32;;;;;;;19.83;3.85;;;5.70;99.90;;;;;;5071832;28;20056;-55
2022/02/19 01:51:57;;;;;;;19.23;3.55;;;5.70;99.90;;;;;;5067480;28;20044;-56
2022/02/19 01:54:24;;;;;;;16.95;3.17;;;5.70;99.90;;;;;;5064077;28;20158;-56
2022/02/19 01:56:49;;;;;;;13.38;3.13;;;5.60;99.90;;;;;;5069992;28;20481;-56
2022/02/19 01:59:15;;;;;;;13.98;2.53;;;5.70;99.90;;;;;;5060992;28;20081;-56
2022/02/19 02:01:41;;;;;;;14.70;3.05;;;5.80;99.90;;;;;;5063162;28;20054;-52
2022/02/19 02:04:06;;;;;;;19.05;2.80;;;5.80;99.90;;;;;;5060193;28;20040;-54
2022/02/19 02:06:32;;;;;;;13.70;2.70;;;5.70;99.90;;;;;;5061906;28;20536;-50
2022/02/19 02:09:02;;;;;;;13.15;2.83;;;5.80;99.90;;;;;;5049981;28;20041;-51
2022/02/19 02:11:28;;;;;;;21.02;3.35;;;5.80;99.90;;;;;;5051431;28;20037;-52
2022/02/19 02:13:53;;;;;;;15.90;3.22;;;5.90;99.90;;;;;;5070489;28;20032;-52
2022/02/19 02:16:19;;;;;;;14.10;2.72;;;5.90;99.90;;;;;;5060427;28;20040;-52
2022/02/19 02:18:45;;;;;;;16.33;2.67;;;5.90;99.90;;;;;;5050179;28;20041;-51
2022/02/19 02:21:12;;;;;;;17.38;2.65;;;5.90;99.90;;;;;;5049960;28;20053;-51
2022/02/19 02:23:38;;;;;;;12.40;2.92;;;5.90;99.90;;;;;;5051299;28;20059;-51
2022/02/19 02:26:04;;;;;;;15.60;2.80;;;5.90;99.90;;;;;;5058839;28;20552;-50
2022/02/19 02:28:31;;;;;;;15.20;2.88;;;5.90;99.90;;;;;;5070392;28;20546;-50
2022/02/19 02:30:56;;;;;;;16.40;2.30;;;5.90;99.90;;;;;;5070024;28;20060;-51
2022/02/19 02:33:23;;;;;;;18.25;3.20;;;5.90;99.90;;;;;;5071359;28;20036;-51
2022/02/19 02:35:50;;;;;;;13.75;3.20;;;5.80;99.90;;;;;;5063949;28;20112;-52
2022/02/19 02:38:16;;;;;;;16.80;2.83;;;5.90;99.90;;;;;;5060706;28;20051;-52
2022/02/19 02:40:42;;;;;;;16.90;3.38;;;5.80;99.90;;;;;;5071125;28;20041;-52
2022/02/19 02:43:08;;;;;;;17.77;3.38;;;5.80;99.90;;;;;;5071172;28;20044;-52
2022/02/19 02:45:33;;;;;;;16.85;3.25;;;5.70;99.90;;;;;;5069169;28;20561;-55
2022/02/19 02:47:59;;;;;;;17.73;3.75;;;5.70;99.90;;;;;;5069760;28;20409;-50
2022/02/19 02:50:25;;;;;;;18.33;3.05;;;5.70;99.90;;;;;;5036817;28;20501;-52
2022/02/19 02:52:50;;;;;;;19.67;3.63;;;5.60;99.90;;;;;;5062881;28;20037;-52
2022/02/19 02:55:16;;;;;;;15.20;2.47;;;5.70;99.90;;;;;;5051149;28;20497;-51
2022/02/19 02:57:42;;;;;;;17.55;2.70;;;5.60;99.90;;;;;;5069568;28;20040;-52
2022/02/19 03:00:11;;;;;;;16.95;2.92;;;5.60;99.90;;;;;;5070446;28;20028;-51
2022/02/19 03:02:37;;;;;;;16.00;3.00;;;5.60;99.90;;;;;;5069102;28;20443;-52
2022/02/19 03:05:05;;;;;;;11.15;2.85;;;5.50;99.90;;;;;;5060098;28;20405;-51
2022/02/19 03:07:31;;;;;;;15.65;2.55;;;5.40;99.90;;;;;;5051508;28;20051;-52
2022/02/19 03:09:57;;;;;;;12.80;2.88;;;5.30;99.90;;;;;;5041064;28;20514;-52
2022/02/19 03:12:24;;;;;;;20.55;3.03;;;5.10;99.90;;;;;;5051239;28;20041;-51
2022/02/19 03:14:49;;;;;;;14.48;3.13;;;5.10;99.90;;;;;;5058734;28;20128;-51
2022/02/19 03:17:15;;;;;;;12.88;3.05;;;5.10;99.90;;;;;;5063310;28;20123;-51
2022/02/19 03:19:40;;;;;;;19.60;3.10;;;5.00;99.90;;;;;;5071702;28;20419;-54
2022/02/19 03:22:06;;;;;;;23.77;3.75;;;5.10;99.90;;;;;;5070359;28;20545;-53
2022/02/19 03:24:32;;;;;;;20.75;3.00;;;5.20;99.90;;;;;;5054425;28;20401;-52
2022/02/19 03:27:02;;;;;;;16.27;2.72;;;5.20;99.90;;;;;;5066868;28;20080;-54
2022/02/19 03:29:28;;;;;;;15.15;2.97;;;5.30;99.90;;;;;;5074101;28;20044;-51
2022/02/19 03:31:54;;;;;;;15.75;2.70;;;5.20;99.90;;;;;;5074425;28;20037;-52
2022/02/19 03:34:20;;;;;;;12.07;2.75;;;5.20;99.90;;;;;;5074245;28;20051;-52
2022/02/19 03:36:45;;;;;;;15.30;2.63;;;5.30;99.90;;;;;;5062056;28;20036;-53
2022/02/19 03:39:11;;;;;;;11.40;2.47;;;5.20;99.90;;;;;;5054058;28;20037;-53
2022/02/19 03:41:36;;;;;;;14.60;2.30;;;5.20;99.90;;;;;;5054062;28;20048;-52
2022/02/19 03:44:02;;;;;;;17.10;2.90;;;5.20;99.90;;;;;;5053713;28;20044;-53
2022/02/19 03:46:30;;;;;;;16.27;2.35;;;5.20;99.90;;;;;;5063308;28;20039;-53
2022/02/19 03:48:55;;;;;;;12.98;2.42;;;5.20;99.90;;;;;;5073839;28;20048;-56
2022/02/19 03:51:21;;;;;;;18.20;2.95;;;5.20;99.90;;;;;;5073856;28;20546;-52
2022/02/19 03:53:47;;;;;;;17.70;2.95;;;5.20;99.90;;;;;;5072969;28;20036;-53
2022/02/19 03:56:12;;;;;;;15.50;3.03;;;5.20;99.90;;;;;;5064488;28;20497;-53
2022/02/19 03:58:38;;;;;;;14.60;3.22;;;5.20;99.90;;;;;;5053985;28;20037;-51
2022/02/19 04:01:04;;;;;;;17.98;3.30;;;5.20;99.90;;;;;;5053610;28;20036;-53
2022/02/19 04:03:30;;;;;;;17.00;3.42;;;5.20;99.90;;;;;;5053534;28;20045;-53
2022/02/19 04:05:59;;;;;;;15.65;2.70;;;5.20;99.90;;;;;;5057138;28;20101;-55
2022/02/19 04:08:25;;;;;;;18.02;2.75;;;5.30;99.90;;;;;;5072001;28;20132;-52
2022/02/19 04:10:51;;;;;;;18.35;4.18;;;5.30;99.90;;;;;;5072002;28;20041;-51
2022/02/19 04:13:16;;;;;;;13.15;2.38;;;5.40;99.90;;;;;;5060078;28;20128;-54
2022/02/19 04:15:42;;;;;;;14.38;2.55;;;5.40;99.90;;;;;;5055284;28;20111;-53
2022/02/19 04:18:08;;;;;;;14.65;2.63;;;5.40;99.90;;;;;;5073201;28;20497;-53
2022/02/19 04:20:34;;;;;;;12.35;3.08;;;5.40;99.90;;;;;;5055334;28;20036;-51
2022/02/19 04:22:59;;;;;;;21.85;3.50;;;5.50;99.90;;;;;;5054209;28;20072;-54
2022/02/19 04:25:28;;;;;;;20.08;2.80;;;5.50;99.90;;;;;;5072772;28;20051;-55
2022/02/19 04:28:05;;;;;;;13.85;2.90;;;5.50;99.90;;;;;;5072416;28;20513;-51
2022/02/19 04:30:30;;;;;;;13.48;2.45;;;5.50;99.90;;;;;;5073395;28;20062;-54
2022/02/19 04:32:58;;;;;;;13.43;3.30;;;5.50;99.90;;;;;;5071851;28;20044;-53
2022/02/19 04:35:24;;;;;;;14.48;2.67;;;5.50;99.90;;;;;;5072861;28;20507;-53
2022/02/19 04:37:51;;;;;;;13.82;2.50;;;5.50;99.90;;;;;;5035252;28;20044;-53
2022/02/19 04:40:16;;;;;;;24.95;3.15;;;5.50;99.90;;;;;;5052755;28;20049;-53
2022/02/19 04:42:43;;;;;;;16.92;2.78;;;5.50;99.90;;;;;;5052974;28;20417;-53
2022/02/19 04:45:09;;;;;;;16.90;2.85;;;5.50;99.90;;;;;;5052906;28;20045;-53
2022/02/19 04:47:35;;;;;;;15.68;3.00;;;5.50;99.90;;;;;;5069398;28;20468;-54
2022/02/19 04:50:01;;;;;;;14.80;2.17;;;5.50;99.90;;;;;;5055012;28;20190;-51
2022/02/19 04:52:27;;;;;;;16.55;2.42;;;5.50;99.90;;;;;;5072495;28;20053;-52
2022/02/19 04:54:52;;;;;;;17.00;3.30;;;5.60;99.90;;;;;;5036173;28;20266;-52
2022/02/19 04:57:18;;;;;;;13.43;2.63;;;5.50;99.90;;;;;;5066577;28;20580;-54
2022/02/19 04:59:43;;;;;;;16.02;3.42;;;5.50;99.90;;;;;;5071054;28;20048;-51
2022/02/19 05:02:09;;;;;;;13.70;2.35;;;5.50;99.90;;;;;;5072561;28;20043;-53
2022/02/19 05:04:35;;;;;;;17.55;2.60;;;5.50;99.90;;;;;;5072910;28;20036;-51
2022/02/19 05:07:00;;;;;;;14.70;2.75;;;5.50;99.90;;;;;;5060088;28;20045;-53
2022/02/19 05:09:26;;;;;;;18.38;3.30;;;5.50;99.90;;;;;;5052091;28;20041;-54
2022/02/19 05:11:51;;;;;;;21.27;2.67;;;5.50;99.90;;;;;;5052389;28;20032;-52
2022/02/19 05:14:17;;;;;;;14.98;2.92;;;5.50;99.90;;;;;;5052377;28;20094;-53
2022/02/19 05:16:43;;;;;;;14.32;2.40;;;5.50;99.90;;;;;;5059560;28;20578;-52
2022/02/19 05:19:08;;;;;;;14.88;2.60;;;5.40;99.90;;;;;;5070955;28;20067;-53
2022/02/19 05:21:34;;;;;;;14.43;2.35;;;5.40;99.90;;;;;;5072206;28;20404;-56
2022/02/19 05:23:59;;;;;;;10.35;2.05;;;5.40;99.90;;;;;;5069900;28;20193;-53
2022/02/19 05:26:25;;;;;;;15.18;2.25;;;5.40;99.90;;;;;;5065183;28;20382;-50
2022/02/19 05:28:51;;;;;;;16.88;2.70;;;5.40;99.90;;;;;;5052000;28;20037;-55
2022/02/19 05:31:16;;;;;;;13.18;2.20;;;5.30;99.90;;;;;;5052024;28;20120;-52
2022/02/19 05:33:42;;;;;;;22.65;3.00;;;5.30;99.90;;;;;;5051914;28;20405;-53
2022/02/19 05:36:08;;;;;;;16.02;2.50;;;5.30;99.90;;;;;;5055337;28;20071;-52
2022/02/19 05:38:34;;;;;;;11.38;1.88;;;5.20;99.90;;;;;;5037296;28;20040;-53
2022/02/19 05:40:59;;;;;;;12.85;2.65;;;5.20;99.90;;;;;;5072027;28;20556;-53
2022/02/19 05:43:25;;;;;;;21.33;2.92;;;5.10;99.90;;;;;;5071241;28;20048;-53
2022/02/19 05:45:51;;;;;;;13.30;2.28;;;5.10;99.90;;;;;;5053173;28;20051;-52
2022/02/19 05:48:17;;;;;;;12.32;2.25;;;5.10;99.90;;;;;;5071783;28;20496;-55
2022/02/19 05:50:46;;;;;;;14.23;2.60;;;5.10;99.90;;;;;;5072296;28;20036;-54
2022/02/19 05:53:13;;;;;;;16.48;2.50;;;5.00;99.90;;;;;;5070744;28;20075;-52
2022/02/19 05:55:40;;;;;;;15.65;2.92;;;5.10;99.90;;;;;;5070418;28;20071;-55
2022/02/19 05:58:06;;;;;;;17.92;2.80;;;5.10;99.90;;;;;;5051488;28;20048;-53
2022/02/19 06:00:31;;;;;;;10.40;2.47;;;5.10;99.90;;;;;;5051558;28;20044;-53
2022/02/19 06:02:57;;;;;;;17.10;2.60;;;5.00;99.90;;;;;;5051435;28;20116;-52
2022/02/19 06:05:23;;;;;;;10.70;2.13;;;5.00;99.90;;;;;;5059441;28;20044;-55
2022/02/19 06:07:48;;;;;;;13.88;2.70;;;4.80;99.90;;;;;;5053640;28;20048;-55
2022/02/19 06:10:14;;;;;;;17.15;2.90;;;4.70;99.90;;;;;;5051648;28;20040;-55
2022/02/19 06:12:40;;;;;;;15.55;2.35;;;4.60;99.90;;;;;;5051366;28;20033;-56
2022/02/19 06:15:07;;;;;;;12.77;3.90;;;4.60;99.90;;;;;;5051184;28;20041;-54
2022/02/19 06:17:34;;;;;;;11.10;1.83;;;4.30;99.90;;;;;;5065532;28;20068;-56
2022/02/19 06:19:59;;;;;;;9.18;1.80;;;4.10;99.90;;;;;;5071348;28;20116;-56
2022/02/19 06:22:25;;;;;;;10.95;2.40;;;4.00;99.90;;;;;;5070369;28;20437;-55
2022/02/19 06:24:51;;;;;;;10.80;1.90;;;3.90;99.90;;;;;;5071542;28;20048;-55
2022/02/19 06:27:17;;;;;;;15.00;2.97;;;3.90;99.90;;;;;;5058767;28;20387;-56
2022/02/19 06:29:42;;;;;;;14.02;3.05;;;4.00;99.90;;;;;;5053710;28;20489;-55
2022/02/19 06:32:09;;;;;;;11.95;2.30;;;4.10;99.90;;;;;;5051327;28;20044;-53
2022/02/19 06:34:35;;;;;;;14.32;2.83;;;4.20;99.90;;;;;;5054163;28;20041;-56
2022/02/19 06:37:01;;;;;;;16.08;2.70;;;4.30;99.90;;;;;;5065266;28;20032;-56
2022/02/19 06:39:28;;;;;;;17.15;2.30;;;4.40;99.90;;;;;;5071270;28;20046;-55
2022/02/19 06:41:53;;;;;;;15.60;3.13;;;4.40;99.90;;;;;;5071204;28;20044;-56
2022/02/19 06:44:19;;;;;;;15.95;2.45;;;4.30;99.90;;;;;;5070916;28;20044;-56
2022/02/19 06:46:44;;;;;;;17.38;2.33;;;4.30;99.90;;;;;;5070100;28;20049;-55
2022/02/19 06:49:10;;;;;;;19.10;2.90;;;4.30;99.90;;;;;;5070937;28;20098;-55
2022/02/19 06:51:36;;;;;;;18.02;3.13;;;4.30;99.90;;;;;;5070423;28;20097;-56
2022/02/19 06:54:01;;;;;;;15.45;2.58;;;4.30;99.90;;;;;;5071152;28;20040;-56
2022/02/19 06:56:27;;;;;;;19.73;2.90;;;4.30;99.90;;;;;;5069800;28;20120;-53
2022/02/19 06:58:59;;;;;;;13.52;2.22;;;4.30;99.90;;;;;;5053476;28;20037;-56
2022/02/19 07:01:27;;;;;;;15.85;2.65;;;4.30;99.90;;;;;;5063407;28;20393;-56
2022/02/19 07:03:54;;;;;;;16.17;3.08;;;4.40;99.90;;;;;;5063089;28;20142;-55
2022/02/19 07:06:20;;;;;;;12.57;2.15;;;4.40;99.90;;;;;;5064947;28;20036;-54
2022/02/19 07:08:47;;;;;;;16.48;2.55;;;4.40;99.90;;;;;;5056344;28;20037;-52
2022/02/19 07:11:13;;;;;;;15.00;2.30;;;4.50;99.90;;;;;;5048884;28;20044;-55
2022/02/19 07:13:42;;;;;;;11.75;3.10;;;4.60;99.90;;;;;;5058909;28;20029;-56
2022/02/19 07:16:08;;;;;;;16.42;3.17;;;4.70;99.90;;;;;;5057560;28;20041;-56
2022/02/19 07:18:33;;;;;;;11.68;1.90;;;4.80;99.90;;;;;;5065823;28;20036;-56
2022/02/19 07:20:59;;;;;;;11.35;2.22;;;4.80;99.90;;;;;;5055887;28;20048;-56
2022/02/19 07:23:26;;;;;;;14.90;2.60;;;4.80;99.90;;;;;;5064809;28;20079;-50
2022/02/19 07:25:51;;;;;;;13.15;2.83;;;4.90;99.90;;;;;;5063934;28;20044;-54
2022/02/19 07:28:17;;;;;;;14.95;2.65;;;4.90;99.90;;;;;;5065857;28;20039;-56
2022/02/19 07:30:43;;;;;;;12.18;2.47;;;5.00;99.90;;;;;;5065436;28;20096;-56
2022/02/19 07:33:09;;;;;;;14.07;2.08;;;5.00;99.90;;;;;;5062477;28;20075;-56
2022/02/19 07:35:35;;;;;;;16.30;3.53;;;5.00;99.90;;;;;;5053976;28;20129;-56
2022/02/19 07:38:00;;;;;;;12.70;2.30;;;5.00;99.90;;;;;;5053973;28;20063;-55
2022/02/19 07:40:26;;;;;;;11.90;2.17;;;5.00;99.90;;;;;;5056089;28;20048;-56
2022/02/19 07:42:54;;;;;;;14.85;2.05;;;5.10;99.90;;;;;;5065175;28;20489;-53
2022/02/19 07:45:19;;;;;;;14.18;2.30;;;5.10;99.90;;;;;;5061920;28;20041;-54
2022/02/19 07:47:45;;;;;;;11.70;2.28;;;5.10;99.90;;;;;;5063233;28;20539;-54
2022/02/19 07:58:26;;;;;;;17.10;2.90;;;5.20;99.90;;;;;;5062004;28;20076;-54
2022/02/19 08:01:00;;;;;;;17.35;3.28;;;5.10;99.90;;;;;;5065819;28;20044;-54
2022/02/19 08:03:28;;;;;;;18.90;3.03;;;5.20;99.90;;;;;;5056207;28;20094;-54
2022/02/19 08:05:54;;;;;;;14.02;2.53;;;5.20;99.90;;;;;;5053523;28;20095;-54
2022/02/19 08:08:20;;;;;;;14.45;3.03;;;5.20;99.90;;;;;;5053182;28;20045;-53
2022/02/19 08:10:46;;;;;;;13.35;2.53;;;5.30;99.90;;;;;;5053363;28;20439;-54
2022/02/19 08:13:14;;;;;;;16.17;2.63;;;5.30;99.90;;;;;;5053511;28;20079;-54
2022/02/19 08:15:39;;;;;;;11.82;2.20;;;5.40;99.90;;;;;;5053525;28;20041;-53
2022/02/19 08:18:07;;;;;;;18.17;2.20;;;5.40;99.90;;;;;;5053109;28;20041;-54
2022/02/19 08:20:37;;;;;;;15.18;2.60;;;5.50;99.90;;;;;;5053245;28;20052;-54
2022/02/19 08:23:05;;;;;;;17.92;2.65;;;5.50;99.90;;;;;;5053405;28;20041;-54
2022/02/19 08:25:31;;;;;;;12.15;2.38;;;5.50;99.90;;;;;;5053477;28;20040;-54
2022/02/19 08:27:57;;;;;;;14.73;2.33;;;5.50;99.90;;;;;;5053078;28;20045;-54
2022/02/19 08:30:23;;;;;;;11.60;2.97;;;5.40;99.90;;;;;;5053018;28;20497;-54
2022/02/19 08:32:48;;;;;;;15.13;3.08;;;5.40;99.90;;;;;;5053087;28;20067;-54
2022/02/19 08:35:15;;;;;;;16.38;2.67;;;5.40;99.90;;;;;;5052887;28;20061;-54
2022/02/19 08:37:41;;;;;;;15.55;2.47;;;5.40;99.90;;;;;;5052556;28;20056;-53
2022/02/19 08:40:11;;;;;;;8.65;1.80;;;5.40;99.90;;;;;;5058558;28;20048;-52
2022/02/19 08:42:40;;;;;;;22.13;2.90;;;5.40;99.90;;;;;;5072971;28;20404;-52
2022/02/19 08:45:06;;;;;;;13.48;2.53;;;5.40;99.90;;;;;;5071608;28;20086;-54
2022/02/19 08:47:33;;;;;;;15.02;2.35;;;5.50;99.90;;;;;;5072612;28;20048;-54
2022/02/19 08:50:00;;;;;;;13.32;2.13;;;5.60;99.90;;;;;;5054709;28;20048;-54
2022/02/19 08:52:25;;;;;;;20.25;3.20;;;5.70;99.90;;;;;;5058240;28;20045;-54
2022/02/19 08:54:51;;;;;;;9.73;2.75;;;5.80;99.90;;;;;;5052897;28;20417;-54
2022/02/19 08:57:17;;;;;;;18.55;2.58;;;5.70;99.90;;;;;;5059561;28;20029;-53
2022/02/19 08:59:42;;;;;;;11.10;2.08;;;5.60;99.90;;;;;;5072657;28;20637;-54
2022/02/19 09:02:08;;;;;;;11.75;2.33;;;5.50;99.90;;;;;;5072376;28;20485;-53
2022/02/19 09:04:33;;;;;;;12.13;2.20;;;5.50;99.90;;;;;;5072380;28;20234;-54
2022/02/19 09:06:59;;;;;;;17.25;3.00;;;5.50;99.90;;;;;;5062191;28;20123;-54
2022/02/19 09:09:25;;;;;;;15.35;2.72;;;5.50;99.90;;;;;;5069751;28;20040;-54
2022/02/19 09:11:50;;;;;;;19.50;3.80;;;5.50;99.90;;;;;;5071191;28;20036;-54
2022/02/19 09:14:16;;;;;;;15.95;3.05;;;5.50;99.90;;;;;;5063742;28;20041;-53
2022/02/19 09:16:42;;;;;;;18.50;2.90;;;5.60;99.90;;;;;;5051776;28;20028;-55
2022/02/19 09:19:08;;;;;;;18.00;3.50;;;5.60;99.90;;;;;;5068737;28;20503;-54
2022/02/19 09:21:34;;;;;;;20.92;2.65;;;5.60;99.90;;;;;;5072010;28;20051;-54
2022/02/19 09:24:00;;;;;;;14.65;2.50;;;5.70;99.90;;;;;;5054321;28;20082;-54
2022/02/19 09:26:26;;;;;;;14.05;3.22;;;5.70;99.90;;;;;;5071895;28;20571;-55
2022/02/19 09:28:52;;;;;;;15.50;2.45;;;5.90;99.90;;;;;;5071896;28;20489;-55
2022/02/19 09:31:19;;;;;;;19.10;2.80;;;6.10;99.90;;;;;;5064718;28;20048;-53
2022/02/19 09:33:46;;;;;;;13.65;2.92;;;6.10;99.90;;;;;;5051869;28;20063;-53
2022/02/19 09:36:12;;;;;;;15.55;2.30;;;6.30;99.90;;;;;;5051430;28;20124;-55
2022/02/19 09:38:39;;;;;;;17.40;3.38;;;6.40;99.90;;;;;;5051816;28;20052;-55
2022/02/19 09:41:07;;;;;;;14.13;2.40;;;6.50;99.90;;;;;;5051965;28;20045;-54
2022/02/19 09:43:36;;;;;;;15.02;4.00;;;6.50;99.90;;;;;;5051806;28;20041;-55
2022/02/19 09:46:03;;;;;;;13.82;2.50;;;6.50;99.90;;;;;;5051669;28;20033;-53
2022/02/19 09:48:29;;;;;;;12.50;2.35;;;6.50;99.90;;;;;;5051958;28;20044;-53
2022/02/19 09:50:57;;;;;;;11.93;2.13;;;6.50;99.90;;;;;;5051479;28;20542;-54
2022/02/19 09:53:24;;;;;;;17.60;2.88;;;6.50;99.90;;;;;;5051641;28;20037;-53
2022/02/19 09:55:49;;;;;;;17.45;2.95;;;6.50;99.90;;;;;;5051697;28;20041;-53
2022/02/19 09:58:15;;;;;;;15.32;2.40;;;6.50;99.90;;;;;;5051370;28;20382;-54
2022/02/19 10:00:46;;;;;;;15.07;2.50;;;6.50;99.90;;;;;;5051523;28;20120;-54
2022/02/19 10:03:20;;;;;;;17.92;2.67;;;6.50;99.90;;;;;;5051312;28;20049;-55
2022/02/19 10:05:46;;;;;;;16.52;2.33;;;6.50;99.90;;;;;;5052044;28;20137;-54
2022/02/19 10:08:11;;;;;;;18.58;3.15;;;6.60;99.90;;;;;;5051366;28;20541;-55
2022/02/19 10:10:40;;;;;;;21.45;3.20;;;6.60;99.90;;;;;;5052119;28;20068;-55
2022/02/19 10:13:06;;;;;;;13.15;2.75;;;6.60;99.90;;;;;;5062400;28;20167;-54
2022/02/19 10:15:49;;;;;;;24.65;3.65;;;6.60;99.90;;;;;;5033380;28;20086;-54
2022/02/19 10:18:35;;;;;;;14.02;2.65;;;6.60;99.90;;;;;;5051290;28;20044;-54
2022/02/19 10:21:19;;;;;;;10.68;2.90;;;6.60;99.90;;;;;;5051072;28;20049;-54
2022/02/19 10:23:46;;;;;;;12.73;3.05;;;6.80;99.90;;;;;;5051520;28;20102;-55
2022/02/19 10:26:14;;;;;;;12.63;3.05;;;6.80;99.90;;;;;;5050978;28;20056;-54
2022/02/19 10:28:55;;;;;;;14.05;3.00;;;6.80;99.90;;;;;;5052236;28;20045;-55
2022/02/19 10:31:20;;;;;;;16.08;3.08;;;6.60;99.90;;;;;;5055784;28;20041;-53
2022/02/19 10:33:46;;;;;;;15.10;3.13;;;6.50;99.90;;;;;;5055323;28;20044;-54
2022/02/19 10:36:15;;;;;;;14.23;2.78;;;6.40;99.90;;;;;;5054854;28;20063;-51
2022/02/19 10:38:55;;;;;;;14.98;2.88;;;6.40;99.90;;;;;;5055529;28;20521;-55
2022/02/19 10:41:32;;;;;;;13.65;2.53;;;6.30;99.90;;;;;;5055368;28;20049;-54
2022/02/19 10:43:57;;;;;;;11.80;2.50;;;6.40;99.90;;;;;;5055148;28;20068;-54
2022/02/19 10:46:29;;;;;;;15.63;2.45;;;6.40;99.90;;;;;;5054766;28;20128;-53
2022/02/19 10:49:10;;;;;;;15.90;2.70;;;6.40;99.90;;;;;;5054758;28;20524;-54
2022/02/19 10:51:36;;;;;;;16.75;2.78;;;6.40;99.90;;;;;;5055129;28;20041;-54
2022/02/19 10:54:05;;;;;;;14.75;2.20;;;6.40;99.90;;;;;;5055016;28;20489;-53
2022/02/19 10:56:33;;;;;;;14.95;2.65;;;6.40;99.90;;;;;;5055220;28;20045;-54
2022/02/19 10:59:08;;;;;;;18.23;2.80;;;6.40;99.90;;;;;;5054822;28;20044;-55
2022/02/19 11:01:51;;;;;;;14.00;2.40;;;6.40;99.90;;;;;;5054675;28;20120;-55
2022/02/19 11:04:19;;;;;;;14.38;2.10;;;6.40;99.90;;;;;;5054861;28;20507;-55
2022/02/19 11:06:45;;;;;;;12.52;2.45;;;6.30;99.90;;;;;;5054513;28;20033;-54
2022/02/19 11:09:13;;;;;;;12.00;2.70;;;6.40;99.90;;;;;;5054554;28;20124;-55
2022/02/19 11:11:42;;;;;;;17.63;2.10;;;6.40;99.90;;;;;;5054530;28;20398;-54
2022/02/19 11:14:13;;;;;;;17.92;2.75;;;6.40;99.90;;;;;;5055189;28;20056;-54
2022/02/19 11:16:39;;;;;;;16.95;2.28;;;6.40;99.90;;;;;;5055645;28;20033;-52
2022/02/19 11:19:06;;;;;;;13.70;2.88;;;6.40;99.90;;;;;;5065630;28;20045;-54
2022/02/19 11:21:33;;;;;;;15.45;3.00;;;6.50;99.90;;;;;;5054539;28;20049;-55
2022/02/19 11:24:03;;;;;;;18.27;2.60;;;6.50;99.90;;;;;;5054347;28;20175;-54
2022/02/19 11:26:30;;;;;;;16.02;3.38;;;6.50;99.80;;;;;;5053842;28;20068;-55
2022/02/19 11:29:00;;;;;;;21.90;4.18;;;6.50;99.90;;;;;;5054373;28;20037;-54
2022/02/19 11:31:28;;;;;;;21.17;4.82;;;6.40;99.90;;;;;;5054872;28;20132;-54
2022/02/19 11:33:59;;;;;;;21.27;4.95;;;6.40;99.90;;;;;;5054017;28;20029;-55
2022/02/19 11:36:26;;;;;;;27.70;6.60;;;6.50;99.70;;;;;;5054449;28;20080;-54
2022/02/19 11:38:55;;;;;;;19.65;4.60;;;6.60;99.90;;;;;;5053930;28;20118;-54
2022/02/19 11:41:35;;;;;;;25.00;4.85;;;6.80;99.90;;;;;;5052254;28;20346;-55
2022/02/19 11:44:01;;;;;;;8.98;2.22;;;7.10;99.90;;;;;;5054107;28;20460;-55
2022/02/19 11:46:27;;;;;;;11.98;2.10;;;7.30;99.70;;;;;;5054710;28;20044;-54
2022/02/19 11:48:53;;;;;;;11.07;2.30;;;7.50;98.60;;;;;;5053821;28;20045;-54
2022/02/19 11:51:29;;;;;;;11.10;2.28;;;7.60;97.60;;;;;;5053562;28;20029;-55
2022/02/19 11:54:07;;;;;;;13.77;2.08;;;7.70;96.60;;;;;;5052596;28;20481;-54
2022/02/19 11:56:35;;;;;;;11.60;2.00;;;7.70;97.80;;;;;;5052260;28;20040;-55
2022/02/19 11:59:02;;;;;;;10.85;1.80;;;7.70;96.70;;;;;;5053567;28;20390;-53
2022/02/19 12:01:29;;;;;;;10.80;1.98;;;7.80;94.20;;;;;;5053759;28;20125;-54
2022/02/19 12:04:21;;;;;;;11.13;2.28;;;7.80;94.00;;;;;;5057304;28;20051;-54
2022/02/19 12:07:06;;;;;;;9.93;1.93;;;7.70;94.80;;;;;;5069576;28;20048;-55
2022/02/19 12:09:33;;;;;;;12.43;2.20;;;7.60;94.20;;;;;;5073408;28;20045;-54
2022/02/19 12:12:06;;;;;;;12.85;2.10;;;7.60;94.80;;;;;;5055604;28;20045;-54
2022/02/19 12:14:41;;;;;;;15.25;2.25;;;7.60;94.40;;;;;;5073510;28;20112;-54
2022/02/19 12:17:14;;;;;;;11.13;1.92;;;7.50;93.40;;;;;;5073292;28;20072;-52
2022/02/19 12:20:22;;;;;;;13.88;2.25;;;7.40;93.40;;;;;;5073190;28;20401;-53
2022/02/19 12:22:54;;;;;;;13.55;1.73;;;7.40;93.70;;;;;;5062802;28;20066;-54
2022/02/19 12:25:21;;;;;;;19.23;3.10;;;7.30;92.90;;;;;;5073573;28;20044;-53
2022/02/19 12:28:19;;;;;;;11.93;1.63;;;7.40;92.90;;;;;;5071217;28;20497;-54
2022/02/19 12:30:46;;;;;;;11.15;2.00;;;7.50;93.90;;;;;;5062966;28;20090;-55
2022/02/19 12:33:12;;;;;;;16.85;2.22;;;7.50;94.40;;;;;;5072698;28;20496;-51
2022/02/19 12:35:46;;;;;;;14.43;2.00;;;7.50;92.70;;;;;;5072875;28;20518;-55
2022/02/19 12:38:13;;;;;;;9.95;1.80;;;7.40;92.90;;;;;;5065161;28;20490;-55
2022/02/19 12:40:40;;;;;;;13.23;2.08;;;7.40;92.30;;;;;;5052871;28;20445;-55
2022/02/19 12:43:12;;;;;;;15.00;2.45;;;7.30;92.90;;;;;;5052919;28;20033;-54
2022/02/19 12:45:38;;;;;;;9.25;2.00;;;7.40;92.70;;;;;;5052734;28;20041;-54
2022/02/19 12:48:04;;;;;;;8.73;1.75;;;7.40;92.60;;;;;;5052671;28;20041;-56
2022/02/19 12:50:30;;;;;;;8.32;2.10;;;7.30;92.60;;;;;;5052917;28;20044;-54
2022/02/19 12:52:56;;;;;;;13.00;2.28;;;7.40;91.60;;;;;;5051240;28;20041;-54
2022/02/19 12:55:22;;;;;;;12.85;2.05;;;7.30;92.30;;;;;;5053329;28;20033;-55